Time;durP1;ratioP1;P1;durP2;ratioP2;P2;SDS_P1;SDS_P2;PMS_P1;PMS_P2;Temp;Humidity;BMP_temperature;BMP_pressure;BME280_temperature;BME280_humidity;BME280_pressure;Samples;Min_cycle;Max_cycle;Signal;HPM_P1;HPM_P2
2022/10/15 00:01:06;;;;;;;;;;;;;;;14.49;62.76;100279.91;5005873;28;19922;-60
2022/10/15 00:03:33;;;;;;;;;;;;;;;14.47;63.19;100280.84;4975280;28;20300;-60
2022/10/15 00:06:02;;;;;;;;;;;;;;;14.49;63.51;100282.56;4976013;28;19918;-60
2022/10/15 00:08:27;;;;;;;;;;;;;;;14.55;63.67;100281.44;4972393;28;20378;-59
2022/10/15 00:10:53;;;;;;;;;;;;;;;14.62;63.35;100279.44;4973776;28;20191;-60
2022/10/15 00:13:18;;;;;;;;;;;;;;;14.63;63.31;100281.16;4970568;28;19957;-60
2022/10/15 00:15:43;;;;;;;;;;;;;;;14.66;62.96;100276.59;4972448;28;20266;-59
2022/10/15 00:18:09;;;;;;;;;;;;;;;14.68;63.24;100273.88;4970714;28;19922;-59
2022/10/15 00:20:34;;;;;;;;;;;;;;;14.67;63.67;100259.81;4972668;28;19934;-60
2022/10/15 00:22:59;;;;;;;;;;;;;;;14.62;64.56;100260.91;4973568;28;19926;-60
2022/10/15 00:25:24;;;;;;;;;;;;;;;14.67;64.76;100253.66;4974584;28;19992;-60
2022/10/15 00:27:50;;;;;;;;;;;;;;;14.77;64.22;100257.66;4974801;28;20333;-62
2022/10/15 00:30:15;;;;;;;;;;;;;;;14.81;64.34;100256.63;4974234;28;20315;-61
2022/10/15 00:32:40;;;;;;;;;;;;;;;14.87;64.44;100253.69;4974610;28;20039;-60
2022/10/15 00:35:06;;;;;;;;;;;;;;;14.86;64.91;100249.34;4975389;28;19922;-61
2022/10/15 00:37:31;;;;;;;;;;;;;;;14.93;64.29;100252.59;4971572;28;20279;-61
2022/10/15 00:39:57;;;;;;;;;;;;;;;14.97;64.42;100243.59;4974471;28;19922;-60
2022/10/15 00:42:22;;;;;;;;;;;;;;;14.95;64.89;100233.06;4975690;28;19922;-61
2022/10/15 00:44:57;;;;;;;;;;;;;;;14.93;65.11;100227.00;4974408;28;20017;-59
2022/10/15 00:47:23;;;;;;;;;;;;;;;14.84;65.55;100234.44;4972401;28;20263;-60
2022/10/15 00:49:58;;;;;;;;;;;;;;;15.00;64.44;100222.28;4973973;28;19933;-60
2022/10/15 00:52:34;;;;;;;;;;;;;;;14.98;64.59;100230.31;4969524;28;19925;-60
2022/10/15 00:55:03;;;;;;;;;;;;;;;15.03;64.29;100230.09;4975125;28;19925;-59
2022/10/15 00:57:29;;;;;;;;;;;;;;;15.04;64.50;100234.50;4973593;28;19969;-60
2022/10/15 00:59:57;;;;;;;;;;;;;;;15.11;64.42;100233.28;4973767;28;19933;-59
2022/10/15 01:02:22;;;;;;;;;;;;;;;15.19;64.24;100227.66;4972329;28;20411;-60
2022/10/15 01:04:47;;;;;;;;;;;;;;;15.27;63.85;100221.09;4973928;28;19929;-60
2022/10/15 01:07:13;;;;;;;;;;;;;;;15.32;63.98;100228.88;4973838;28;19921;-60
2022/10/15 01:09:41;;;;;;;;;;;;;;;15.31;64.42;100224.50;4972642;28;19922;-60
2022/10/15 01:12:10;;;;;;;;;;;;;;;15.40;64.05;100215.28;4974959;28;19929;-60
2022/10/15 01:14:48;;;;;;;;;;;;;;;15.42;63.97;100216.94;4974798;28;19918;-60
2022/10/15 01:17:16;;;;;;;;;;;;;;;15.43;64.06;100210.72;4972647;28;19918;-59
2022/10/15 01:20:00;;;;;;;;;;;;;;;15.39;64.59;100210.91;4974445;28;20012;-61
2022/10/15 01:22:40;;;;;;;;;;;;;;;15.47;64.30;100207.00;4968430;28;20004;-59
2022/10/15 01:25:11;;;;;;;;;;;;;;;15.53;63.99;100200.59;4966336;28;19933;-60
2022/10/15 01:27:41;;;;;;;;;;;;;;;15.93;63.08;100197.00;4973414;28;19925;-60
2022/10/15 01:30:26;;;;;;;;;;;;;;;15.89;62.88;100197.22;4973513;28;19917;-61
2022/10/15 01:32:51;;;;;;;;;;;;;;;15.70;63.77;100183.97;4971132;28;19925;-60
2022/10/15 01:35:19;;;;;;;;;;;;;;;15.68;63.88;100183.19;4972615;28;19918;-60
2022/10/15 01:37:47;;;;;;;;;;;;;;;15.73;63.70;100181.19;4974214;28;20381;-59
2022/10/15 01:40:18;;;;;;;;;;;;;;;15.73;64.17;100179.38;4973407;28;19918;-61
2022/10/15 01:42:57;;;;;;;;;;;;;;;15.72;64.19;100179.47;4971549;28;19980;-60
2022/10/15 01:45:35;;;;;;;;;;;;;;;15.72;64.15;100169.72;4970898;28;19934;-60
2022/10/15 01:48:09;;;;;;;;;;;;;;;15.75;63.97;100176.66;5003228;28;20382;-60
2022/10/15 01:50:36;;;;;;;;;;;;;;;15.73;63.83;100176.72;4971837;28;19922;-61
2022/10/15 01:53:03;;;;;;;;;;;;;;;15.72;63.90;100180.31;4974228;28;19914;-60
2022/10/15 01:55:29;;;;;;;;;;;;;;;15.64;64.20;100181.53;4973398;28;19946;-61
2022/10/15 01:57:57;;;;;;;;;;;;;;;15.72;63.79;100182.13;4973218;28;20374;-61
2022/10/15 02:00:22;;;;;;;;;;;;;;;15.68;64.17;100178.75;4971540;28;20394;-61
2022/10/15 02:02:48;;;;;;;;;;;;;;;15.73;63.83;100186.47;4972684;28;19925;-61
2022/10/15 02:05:18;;;;;;;;;;;;;;;15.68;63.97;100183.19;4973929;28;19923;-60
2022/10/15 02:07:53;;;;;;;;;;;;;;;15.64;64.44;100186.84;4972056;28;19918;-60
2022/10/15 02:10:34;;;;;;;;;;;;;;;15.65;63.99;100172.72;4973757;28;19925;-61
2022/10/15 02:13:18;;;;;;;;;;;;;;;15.65;64.16;100184.16;4972302;28;19964;-59
2022/10/15 02:16:01;;;;;;;;;;;;;;;15.67;64.02;100176.16;4973569;28;19968;-59
2022/10/15 02:18:37;;;;;;;;;;;;;;;15.68;63.94;100175.25;4972463;28;19918;-59
2022/10/15 02:21:23;;;;;;;;;;;;;;;15.60;64.39;100178.19;4973475;28;19918;-60
2022/10/15 02:23:54;;;;;;;;;;;;;;;15.58;64.35;100179.19;4969456;28;19918;-60
2022/10/15 02:26:24;;;;;;;;;;;;;;;15.58;64.56;100168.59;4971881;28;19933;-60
2022/10/15 02:28:51;;;;;;;;;;;;;;;15.49;65.04;100167.22;4969538;28;19981;-60
2022/10/15 02:31:17;;;;;;;;;;;;;;;15.51;64.76;100162.72;4972705;28;20396;-60
2022/10/15 02:33:43;;;;;;;;;;;;;;;15.48;64.75;100171.69;4972404;28;19918;-60
2022/10/15 02:36:09;;;;;;;;;;;;;;;15.47;65.09;100169.06;4973004;28;19918;-60
2022/10/15 02:38:35;;;;;;;;;;;;;;;15.50;64.79;100164.50;4966955;28;19934;-60
2022/10/15 02:41:01;;;;;;;;;;;;;;;15.48;64.80;100163.72;4973276;28;19922;-60
2022/10/15 02:43:27;;;;;;;;;;;;;;;15.47;64.57;100151.41;4973467;28;19976;-60
2022/10/15 02:45:52;;;;;;;;;;;;;;;15.44;64.84;100158.63;4973839;28;19929;-60
2022/10/15 02:48:17;;;;;;;;;;;;;;;15.50;64.55;100161.84;4972491;28;19922;-59
2022/10/15 02:50:43;;;;;;;;;;;;;;;15.48;64.55;100160.22;4976463;28;19918;-61
2022/10/15 02:53:08;;;;;;;;;;;;;;;15.48;64.42;100157.59;4977083;28;20048;-61
2022/10/15 02:55:33;;;;;;;;;;;;;;;15.49;64.38;100160.16;4976907;28;20277;-60
2022/10/15 02:57:58;;;;;;;;;;;;;;;15.49;64.44;100152.19;4976595;28;19922;-61
2022/10/15 03:00:24;;;;;;;;;;;;;;;15.47;64.78;100159.34;4977093;28;20019;-61
2022/10/15 03:02:49;;;;;;;;;;;;;;;15.50;64.43;100153.91;4975853;28;19928;-61
2022/10/15 03:05:14;;;;;;;;;;;;;;;15.38;64.93;100148.31;4975535;28;19941;-61
2022/10/15 03:07:40;;;;;;;;;;;;;;;15.36;64.77;100151.06;4975964;28;19918;-60
2022/10/15 03:10:06;;;;;;;;;;;;;;;15.22;64.84;100145.50;4974595;28;19922;-58
2022/10/15 03:12:31;;;;;;;;;;;;;;;15.18;65.17;100147.41;4976913;28;19922;-60
2022/10/15 03:14:57;;;;;;;;;;;;;;;15.12;65.09;100142.41;4976276;28;19918;-60
2022/10/15 03:17:22;;;;;;;;;;;;;;;14.99;65.50;100144.72;4976711;28;20020;-60
2022/10/15 03:19:47;;;;;;;;;;;;;;;14.99;65.36;100142.06;4973110;28;20301;-60
2022/10/15 03:22:13;;;;;;;;;;;;;;;14.88;65.98;100149.63;4976066;28;19918;-60
2022/10/15 03:24:38;;;;;;;;;;;;;;;14.93;65.85;100142.34;4975417;28;20381;-59
2022/10/15 03:27:03;;;;;;;;;;;;;;;14.98;65.29;100145.66;4975941;28;19922;-58
2022/10/15 03:29:29;;;;;;;;;;;;;;;15.27;64.48;100144.34;4974009;28;19922;-60
2022/10/15 03:31:54;;;;;;;;;;;;;;;15.27;64.54;100148.78;4975874;28;19953;-60
2022/10/15 03:34:19;;;;;;;;;;;;;;;14.97;64.84;100151.00;4972911;28;19918;-60
2022/10/15 03:36:45;;;;;;;;;;;;;;;14.83;65.31;100148.94;4974933;28;19929;-60
2022/10/15 03:39:10;;;;;;;;;;;;;;;14.70;65.46;100140.69;4972882;28;19929;-59
2022/10/15 03:41:36;;;;;;;;;;;;;;;14.58;65.54;100143.00;4975784;28;19922;-61
2022/10/15 03:44:02;;;;;;;;;;;;;;;14.45;65.64;100153.19;4974804;28;20000;-60
2022/10/15 03:46:27;;;;;;;;;;;;;;;14.39;65.86;100135.78;4975746;28;19957;-59
2022/10/15 03:48:53;;;;;;;;;;;;;;;14.31;65.99;100140.53;4974316;28;20016;-59
2022/10/15 03:51:18;;;;;;;;;;;;;;;14.24;66.60;100139.94;4975610;28;20292;-59
2022/10/15 03:53:43;;;;;;;;;;;;;;;14.20;66.55;100133.03;4974392;28;19922;-60
2022/10/15 03:56:09;;;;;;;;;;;;;;;14.11;66.46;100132.53;4972028;28;19922;-60
2022/10/15 03:58:34;;;;;;;;;;;;;;;14.09;66.49;100126.47;4975689;28;20031;-60
2022/10/15 04:00:59;;;;;;;;;;;;;;;13.98;67.35;100121.59;4975527;28;20030;-61
2022/10/15 04:03:25;;;;;;;;;;;;;;;14.00;66.86;100112.72;4976171;28;19932;-61
2022/10/15 04:05:51;;;;;;;;;;;;;;;13.95;67.21;100122.56;4971758;28;19922;-61
2022/10/15 04:08:16;;;;;;;;;;;;;;;13.92;66.89;100114.75;4975794;28;19922;-60
2022/10/15 04:10:41;;;;;;;;;;;;;;;13.93;67.05;100105.94;4973952;28;20318;-60
2022/10/15 04:13:07;;;;;;;;;;;;;;;13.94;67.04;100112.94;4975437;28;20067;-62
2022/10/15 04:15:32;;;;;;;;;;;;;;;13.98;66.84;100113.69;4974564;28;19953;-61
2022/10/15 04:17:57;;;;;;;;;;;;;;;13.97;67.09;100107.53;4972908;28;19928;-59
2022/10/15 04:20:23;;;;;;;;;;;;;;;13.99;66.89;100107.47;4972206;28;20421;-61
2022/10/15 04:22:48;;;;;;;;;;;;;;;13.96;66.91;100108.47;4975113;28;19945;-61
2022/10/15 04:25:13;;;;;;;;;;;;;;;13.94;66.85;100105.00;4975716;28;19941;-61
2022/10/15 04:27:39;;;;;;;;;;;;;;;14.12;66.19;100102.53;4974837;28;19965;-61
2022/10/15 04:30:04;;;;;;;;;;;;;;;14.43;65.16;100104.78;4973690;28;19926;-60
2022/10/15 04:32:30;;;;;;;;;;;;;;;14.49;64.90;100102.78;4972123;28;19925;-61
2022/10/15 04:34:55;;;;;;;;;;;;;;;14.53;64.53;100095.59;4969143;28;19922;-58
2022/10/15 04:37:20;;;;;;;;;;;;;;;14.53;64.69;100091.16;4975420;28;19918;-60
2022/10/15 04:39:46;;;;;;;;;;;;;;;14.58;64.63;100092.75;4973111;28;20378;-60
2022/10/15 04:42:11;;;;;;;;;;;;;;;14.22;65.67;100090.69;4974772;28;19968;-59
2022/10/15 04:44:36;;;;;;;;;;;;;;;14.04;66.09;100093.19;4975496;28;20274;-60
2022/10/15 04:47:02;;;;;;;;;;;;;;;14.05;66.40;100094.88;4972633;28;19922;-60
2022/10/15 04:49:27;;;;;;;;;;;;;;;14.02;66.65;100094.16;4973545;28;20354;-60
2022/10/15 04:51:52;;;;;;;;;;;;;;;13.99;66.92;100094.25;4974202;28;19918;-60
2022/10/15 04:54:18;;;;;;;;;;;;;;;14.03;66.83;100091.44;4975295;28;19973;-61
2022/10/15 04:56:43;;;;;;;;;;;;;;;14.07;66.89;100088.66;4975815;28;20284;-60
2022/10/15 04:59:08;;;;;;;;;;;;;;;14.09;66.69;100095.63;4975667;28;19918;-60
2022/10/15 05:01:34;;;;;;;;;;;;;;;14.11;66.72;100098.19;4970813;28;19968;-59
2022/10/15 05:03:59;;;;;;;;;;;;;;;14.52;65.73;100093.84;4974366;28;19929;-61
2022/10/15 05:06:24;;;;;;;;;;;;;;;14.72;65.08;100095.66;4972754;28;19977;-60
2022/10/15 05:08:50;;;;;;;;;;;;;;;14.77;65.38;100083.09;4973979;28;19949;-62
2022/10/15 05:11:16;;;;;;;;;;;;;;;14.36;66.32;100077.75;4971478;28;19922;-61
2022/10/15 05:13:42;;;;;;;;;;;;;;;14.36;66.63;100079.53;4974323;28;20396;-61
2022/10/15 05:16:17;;;;;;;;;;;;;;;14.30;66.85;100075.38;4974372;28;19918;-62
2022/10/15 05:18:44;;;;;;;;;;;;;;;14.40;66.68;100068.78;4972813;28;19914;-60
2022/10/15 05:21:11;;;;;;;;;;;;;;;14.47;66.66;100075.53;4974674;28;19961;-61
2022/10/15 05:23:36;;;;;;;;;;;;;;;14.41;66.65;100070.50;4979688;28;20009;-60
2022/10/15 05:26:02;;;;;;;;;;;;;;;14.50;66.34;100064.84;4974678;28;20004;-60
2022/10/15 05:28:28;;;;;;;;;;;;;;;14.49;66.51;100054.34;4973416;28;19918;-60
2022/10/15 05:30:53;;;;;;;;;;;;;;;14.54;66.39;100050.56;4971252;28;19969;-61
2022/10/15 05:33:19;;;;;;;;;;;;;;;14.56;66.24;100050.50;4971249;28;19922;-60
2022/10/15 05:35:45;;;;;;;;;;;;;;;14.67;65.91;100061.47;4974938;28;19925;-60
2022/10/15 05:38:10;;;;;;;;;;;;;;;14.70;65.97;100052.56;4975568;28;19929;-58
2022/10/15 05:40:35;;;;;;;;;;;;;;;14.80;65.73;100059.16;4970465;28;19926;-60
2022/10/15 05:43:00;;;;;;;;;;;;;;;14.85;65.68;100053.69;4986474;28;19910;-60
2022/10/15 05:45:26;;;;;;;;;;;;;;;14.89;65.58;100060.56;4994036;28;20056;-61
2022/10/15 05:47:54;;;;;;;;;;;;;;;14.88;65.37;100057.06;4975660;28;19918;-61
2022/10/15 05:50:20;;;;;;;;;;;;;;;14.94;65.25;100066.50;4972419;28;20409;-61
2022/10/15 05:52:45;;;;;;;;;;;;;;;14.98;65.18;100057.50;4984809;28;19914;-60
2022/10/15 05:55:11;;;;;;;;;;;;;;;14.85;65.66;100064.25;4973984;28;20304;-60
2022/10/15 05:57:36;;;;;;;;;;;;;;;15.02;65.33;100059.91;4972513;28;19929;-61
2022/10/15 06:00:03;;;;;;;;;;;;;;;15.12;65.04;100068.31;4975889;28;19996;-60
2022/10/15 06:02:28;;;;;;;;;;;;;;;15.13;64.71;100066.53;4976623;28;19925;-60
2022/10/15 06:04:53;;;;;;;;;;;;;;;15.21;64.69;100061.75;4974810;28;19918;-61
2022/10/15 06:07:19;;;;;;;;;;;;;;;15.21;64.69;100061.75;4971229;28;19930;-61
2022/10/15 06:09:44;;;;;;;;;;;;;;;15.22;64.84;100064.31;4973490;28;20284;-61
2022/10/15 06:12:09;;;;;;;;;;;;;;;15.33;64.40;100066.47;4972891;28;19945;-60
2022/10/15 06:14:35;;;;;;;;;;;;;;;15.27;64.63;100064.09;4972380;28;19969;-60
2022/10/15 06:17:00;;;;;;;;;;;;;;;15.41;64.26;100068.78;4973639;28;20014;-60
2022/10/15 06:19:25;;;;;;;;;;;;;;;15.45;64.39;100065.91;4973347;28;20001;-61
2022/10/15 06:21:51;;;;;;;;;;;;;;;15.54;64.08;100075.19;4974681;28;19922;-61
2022/10/15 06:24:16;;;;;;;;;;;;;;;15.71;63.73;100074.44;4974114;28;19922;-61
2022/10/15 06:26:41;;;;;;;;;;;;;;;15.74;63.40;100076.94;4975619;28;19918;-61
2022/10/15 06:29:07;;;;;;;;;;;;;;;15.75;63.25;100084.81;4974573;28;19929;-60
2022/10/15 06:31:32;;;;;;;;;;;;;;;15.81;62.87;100073.06;4977721;28;20368;-62
2022/10/15 06:33:57;;;;;;;;;;;;;;;15.79;63.00;100082.88;4978224;28;19925;-62
2022/10/15 06:36:24;;;;;;;;;;;;;;;15.78;62.83;100081.16;4975381;28;19925;-63
2022/10/15 06:38:50;;;;;;;;;;;;;;;15.75;62.97;100083.94;4977542;28;19925;-63
2022/10/15 06:41:15;;;;;;;;;;;;;;;15.68;63.27;100080.75;4974536;28;20297;-63
2022/10/15 06:43:41;;;;;;;;;;;;;;;15.70;63.00;100070.94;4976459;28;19922;-63
2022/10/15 06:46:06;;;;;;;;;;;;;;;15.68;63.45;100071.94;4974342;28;21041;-62
2022/10/15 06:48:32;;;;;;;;;;;;;;;15.63;63.77;100074.75;4976709;28;19921;-61
2022/10/15 06:50:58;;;;;;;;;;;;;;;15.92;62.98;100060.16;4976288;28;19914;-61
2022/10/15 06:53:23;;;;;;;;;;;;;;;16.09;62.85;100071.72;4975962;28;20251;-65
2022/10/15 06:55:48;;;;;;;;;;;;;;;16.35;62.07;100067.75;4977586;28;19918;-64
2022/10/15 06:58:14;;;;;;;;;;;;;;;16.59;61.58;100076.28;4976996;28;19918;-64
2022/10/15 07:00:39;;;;;;;;;;;;;;;16.63;61.33;100076.03;4974703;28;19926;-63
2022/10/15 07:03:05;;;;;;;;;;;;;;;16.74;60.92;100078.16;4976245;28;20399;-65
2022/10/15 07:05:31;;;;;;;;;;;;;;;16.69;60.95;100069.56;4976444;28;19918;-64
2022/10/15 07:07:56;;;;;;;;;;;;;;;16.74;60.74;100076.38;4977361;28;19918;-64
2022/10/15 07:10:22;;;;;;;;;;;;;;;16.71;61.03;100080.94;4974567;28;19918;-66
2022/10/15 07:12:48;;;;;;;;;;;;;;;16.82;60.66;100078.63;4976893;28;19973;-65
2022/10/15 07:15:13;;;;;;;;;;;;;;;16.90;60.34;100073.78;4976412;28;19922;-65
2022/10/15 07:17:39;;;;;;;;;;;;;;;17.03;60.67;100075.78;4992764;28;19918;-66
2022/10/15 07:20:05;;;;;;;;;;;;;;;17.07;60.38;100077.34;4983239;28;19922;-65
2022/10/15 07:22:30;;;;;;;;;;;;;;;17.27;59.74;100070.94;4976621;28;20436;-64
2022/10/15 07:24:55;;;;;;;;;;;;;;;17.42;59.40;100076.28;4976694;28;19929;-65
2022/10/15 07:27:21;;;;;;;;;;;;;;;17.46;59.22;100074.31;4960427;28;19941;-65
2022/10/15 07:29:46;;;;;;;;;;;;;;;17.58;58.90;100078.97;4977822;28;19969;-66
2022/10/15 07:32:11;;;;;;;;;;;;;;;17.73;58.58;100077.25;4976143;28;20397;-63
2022/10/15 07:34:37;;;;;;;;;;;;;;;17.85;58.30;100073.09;4976661;28;19918;-65
2022/10/15 07:37:02;;;;;;;;;;;;;;;17.88;58.16;100076.44;4973096;28;19918;-64
2022/10/15 07:39:27;;;;;;;;;;;;;;;17.90;58.02;100085.16;4977279;28;19922;-63
2022/10/15 07:41:53;;;;;;;;;;;;;;;17.92;57.98;100083.28;4976946;28;19926;-63
2022/10/15 07:44:18;;;;;;;;;;;;;;;17.98;57.80;100087.38;4977410;28;19976;-63
2022/10/15 07:46:43;;;;;;;;;;;;;;;17.92;58.07;100080.63;4977116;28;19929;-63
2022/10/15 07:49:10;;;;;;;;;;;;;;;17.91;58.06;100084.25;4976773;28;19921;-63
2022/10/15 07:51:35;;;;;;;;;;;;;;;18.03;57.77;100073.81;4976875;28;19945;-64
2022/10/15 07:54:00;;;;;;;;;;;;;;;18.11;57.71;100074.25;4978308;28;19921;-65
2022/10/15 07:56:26;;;;;;;;;;;;;;;18.04;57.83;100080.88;4976713;28;20278;-64
2022/10/15 07:58:51;;;;;;;;;;;;;;;18.15;57.38;100084.63;4976498;28;20389;-64
2022/10/15 08:01:17;;;;;;;;;;;;;;;18.11;57.54;100076.91;4976667;28;20382;-62
2022/10/15 08:03:43;;;;;;;;;;;;;;;18.24;57.28;100072.59;4976670;28;19914;-63
2022/10/15 08:06:08;;;;;;;;;;;;;;;18.22;57.26;100067.34;4976671;28;19918;-63
2022/10/15 08:08:34;;;;;;;;;;;;;;;18.26;56.94;100061.88;4975453;28;20521;-65
2022/10/15 08:11:07;;;;;;;;;;;;;;;18.27;57.21;100060.91;4976344;28;19914;-64
2022/10/15 08:13:32;;;;;;;;;;;;;;;18.25;56.97;100068.13;4976571;28;19914;-65
2022/10/15 08:15:58;;;;;;;;;;;;;;;18.19;57.83;100064.00;4976731;28;19918;-63
2022/10/15 08:18:23;;;;;;;;;;;;;;;18.08;57.69;100077.94;4976314;28;19914;-63
2022/10/15 08:20:48;;;;;;;;;;;;;;;18.18;57.33;100071.13;4976468;28;20433;-64
2022/10/15 08:23:15;;;;;;;;;;;;;;;18.20;57.21;100068.41;4975341;28;20313;-63
2022/10/15 08:25:41;;;;;;;;;;;;;;;18.27;57.11;100067.09;4976629;28;19913;-64
2022/10/15 08:28:06;;;;;;;;;;;;;;;18.27;57.29;100075.06;4975825;28;19933;-62
2022/10/15 08:30:31;;;;;;;;;;;;;;;18.27;57.30;100076.88;4974886;28;19922;-65
2022/10/15 08:32:57;;;;;;;;;;;;;;;18.37;57.02;100072.75;4976385;28;20344;-63
2022/10/15 08:35:22;;;;;;;;;;;;;;;18.54;56.70;100069.94;4976935;28;19924;-63
2022/10/15 08:37:48;;;;;;;;;;;;;;;18.69;56.72;100073.50;4975518;28;19948;-62
2022/10/15 08:40:13;;;;;;;;;;;;;;;18.77;56.20;100075.72;4978845;28;19972;-63
2022/10/15 08:42:40;;;;;;;;;;;;;;;18.87;55.94;100072.41;4973131;28;19973;-63
2022/10/15 08:45:16;;;;;;;;;;;;;;;18.87;56.36;100076.84;4973916;28;20012;-61
2022/10/15 08:47:44;;;;;;;;;;;;;;;19.16;55.49;100081.28;4975204;28;20397;-63
2022/10/15 08:50:28;;;;;;;;;;;;;;;19.40;55.12;100078.03;4974780;28;19918;-64
2022/10/15 08:52:54;;;;;;;;;;;;;;;19.80;54.06;100083.53;4971672;28;19973;-62
2022/10/15 08:55:21;;;;;;;;;;;;;;;20.18;53.16;100073.84;4973393;28;20432;-62
2022/10/15 08:57:52;;;;;;;;;;;;;;;20.57;52.48;100082.00;4975038;28;20362;-62
2022/10/15 09:00:21;;;;;;;;;;;;;;;21.05;51.12;100082.25;4973995;28;19922;-63
2022/10/15 09:02:52;;;;;;;;;;;;;;;21.39;50.25;100076.28;4976926;28;20009;-63
2022/10/15 09:05:27;;;;;;;;;;;;;;;21.56;49.90;100079.56;4974482;28;19914;-64
2022/10/15 09:07:52;;;;;;;;;;;;;;;21.69;49.58;100079.50;4974678;28;19980;-64
2022/10/15 09:10:33;;;;;;;;;;;;;;;21.69;49.22;100087.53;4974250;28;20387;-63
2022/10/15 09:13:01;;;;;;;;;;;;;;;21.57;48.69;100081.25;4974893;28;19917;-65
2022/10/15 09:15:29;;;;;;;;;;;;;;;21.48;49.47;100084.59;4972369;28;20032;-64
2022/10/15 09:17:55;;;;;;;;;;;;;;;21.42;49.44;100085.00;4974809;28;19924;-62
2022/10/15 09:20:30;;;;;;;;;;;;;;;21.32;50.02;100088.34;4973452;28;19926;-63
2022/10/15 09:22:56;;;;;;;;;;;;;;;21.27;50.25;100084.28;4974014;28;19933;-64
2022/10/15 09:25:22;;;;;;;;;;;;;;;21.29;50.00;100085.84;4970253;28;19933;-65
2022/10/15 09:27:49;;;;;;;;;;;;;;;21.29;49.82;100082.34;4974626;28;19918;-63
2022/10/15 09:30:29;;;;;;;;;;;;;;;21.34;50.26;100067.75;4974277;28;19918;-64
2022/10/15 09:32:55;;;;;;;;;;;;;;;21.18;49.90;100083.09;4972168;28;20400;-62
2022/10/15 09:35:27;;;;;;;;;;;;;;;21.22;50.45;100081.91;4971469;28;19958;-64
2022/10/15 09:38:05;;;;;;;;;;;;;;;21.25;50.44;100086.19;4971515;28;19918;-65
2022/10/15 09:40:49;;;;;;;;;;;;;;;21.23;49.92;100080.13;4975082;28;19914;-65
2022/10/15 09:43:16;;;;;;;;;;;;;;;21.12;50.77;100087.06;4973475;28;19914;-64
2022/10/15 09:45:41;;;;;;;;;;;;;;;21.09;51.27;100092.59;4969836;28;19954;-62
2022/10/15 09:48:14;;;;;;;;;;;;;;;21.08;51.53;100084.72;4986088;28;19961;-63
2022/10/15 09:50:43;;;;;;;;;;;;;;;21.04;51.83;100086.75;4975034;28;20373;-63
2022/10/15 09:53:44;;;;;;;;;;;;;;;20.86;52.33;100088.00;4974054;28;19918;-63
2022/10/15 09:56:17;;;;;;;;;;;;;;;20.85;52.39;100089.81;4915177;29;19919;-64
2022/10/15 09:58:53;;;;;;;;;;;;;;;20.89;52.81;100085.13;4964908;28;20329;-64
2022/10/15 10:01:25;;;;;;;;;;;;;;;20.99;52.68;100078.19;4974701;28;19970;-64
2022/10/15 10:03:52;;;;;;;;;;;;;;;21.12;52.48;100078.19;4974497;28;19981;-65
2022/10/15 10:06:19;;;;;;;;;;;;;;;21.10;53.10;100077.44;4977501;28;20262;-64
2022/10/15 10:08:48;;;;;;;;;;;;;;;21.15;52.90;100070.81;4972764;28;20024;-63
2022/10/15 10:11:13;;;;;;;;;;;;;;;21.13;53.42;100072.72;4972172;28;19922;-63
2022/10/15 10:13:43;;;;;;;;;;;;;;;21.10;53.04;100077.44;4973526;28;19922;-61
2022/10/15 10:16:10;;;;;;;;;;;;;;;21.21;52.90;100079.34;4974633;28;20027;-63
2022/10/15 10:18:36;;;;;;;;;;;;;;;21.21;52.86;100077.53;4974001;28;20017;-63
2022/10/15 10:21:06;;;;;;;;;;;;;;;21.29;52.91;100077.84;4972312;28;19928;-60
2022/10/15 10:23:33;;;;;;;;;;;;;;;21.42;52.93;100074.31;4971453;28;20373;-63
2022/10/15 10:26:00;;;;;;;;;;;;;;;21.56;52.76;100068.84;4971271;28;20432;-63
2022/10/15 10:28:45;;;;;;;;;;;;;;;21.70;52.49;100073.19;4970923;28;19922;-62
2022/10/15 10:31:11;;;;;;;;;;;;;;;21.81;51.89;100071.44;4959266;28;19914;-62
2022/10/15 10:33:47;;;;;;;;;;;;;;;21.76;51.81;100075.44;4974388;28;19998;-62
2022/10/15 10:36:23;;;;;;;;;;;;;;;21.72;52.28;100071.28;4974160;28;19914;-62
2022/10/15 10:38:56;;;;;;;;;;;;;;;21.63;52.41;100080.81;4974294;28;19914;-64
2022/10/15 10:41:22;;;;;;;;;;;;;;;21.38;53.33;100071.91;4974253;28;20413;-63
2022/10/15 10:43:54;;;;;;;;;;;;;;;21.27;53.76;100074.44;4973697;28;20018;-62
2022/10/15 10:46:22;;;;;;;;;;;;;;;21.20;53.98;100086.53;4973755;28;19937;-62
2022/10/15 10:48:48;;;;;;;;;;;;;;;21.08;53.88;100088.22;4973236;28;19929;-62
2022/10/15 10:51:24;;;;;;;;;;;;;;;21.02;54.30;100085.13;4975774;28;20367;-61
2022/10/15 10:53:55;;;;;;;;;;;;;;;20.86;54.86;100090.66;4972571;28;20021;-60
2022/10/15 10:56:47;;;;;;;;;;;;;;;20.95;54.83;100079.38;4971823;28;20390;-63
2022/10/15 10:59:26;;;;;;;;;;;;;;;20.99;54.84;100080.03;4976977;28;20017;-60
2022/10/15 11:01:52;;;;;;;;;;;;;;;21.01;55.12;100080.75;4974185;28;20362;-62
2022/10/15 11:04:24;;;;;;;;;;;;;;;21.08;54.34;100071.34;4970909;28;19924;-62
2022/10/15 11:06:50;;;;;;;;;;;;;;;21.13;54.55;100075.41;4974642;28;20293;-62
2022/10/15 11:09:18;;;;;;;;;;;;;;;21.29;54.12;100074.31;4978051;28;19925;-62
2022/10/15 11:12:00;;;;;;;;;;;;;;;21.54;53.38;100071.63;4977158;28;19918;-64
2022/10/15 11:14:42;;;;;;;;;;;;;;;21.76;53.02;100070.94;4997469;28;19914;-65
2022/10/15 11:17:14;;;;;;;;;;;;;;;21.94;52.31;100067.88;4968848;28;20308;-63
2022/10/15 11:19:57;;;;;;;;;;;;;;;22.04;52.04;100068.91;4974436;28;19929;-64
2022/10/15 11:22:22;;;;;;;;;;;;;;;22.12;52.07;100070.03;4971569;28;19910;-65
2022/10/15 11:24:50;;;;;;;;;;;;;;;22.31;51.78;100066.03;4975716;28;20068;-63
2022/10/15 11:27:24;;;;;;;;;;;;;;;22.42;51.83;100059.84;4974752;28;19952;-71
2022/10/15 11:30:02;;;;;;;;;;;;;;;22.43;51.34;100059.75;4966503;28;20005;-62
2022/10/15 11:32:33;;;;;;;;;;;;;;;22.55;51.04;100055.28;5002545;28;19930;-62
2022/10/15 11:35:02;;;;;;;;;;;;;;;22.66;50.49;100060.66;4973747;28;19921;-65
2022/10/15 11:37:27;;;;;;;;;;;;;;;22.47;50.71;100049.66;4978148;28;19922;-65
2022/10/15 11:39:52;;;;;;;;;;;;;;;22.38;50.67;100046.72;4975299;28;19932;-64
2022/10/15 11:42:21;;;;;;;;;;;;;;;22.22;51.15;100046.16;4978159;28;19918;-63
2022/10/15 11:44:49;;;;;;;;;;;;;;;22.24;51.02;100048.72;4976643;28;19945;-64
2022/10/15 11:47:17;;;;;;;;;;;;;;;22.36;50.83;100048.63;4976821;28;19925;-63
2022/10/15 11:49:42;;;;;;;;;;;;;;;22.46;51.06;100042.56;4976365;28;19965;-64
2022/10/15 11:52:27;;;;;;;;;;;;;;;22.46;51.09;100038.09;4975861;28;20009;-64
2022/10/15 11:54:52;;;;;;;;;;;;;;;22.33;51.28;100034.63;4973826;28;20400;-63
2022/10/15 11:57:17;;;;;;;;;;;;;;;22.28;51.55;100035.00;4979673;28;20006;-63
2022/10/15 11:59:53;;;;;;;;;;;;;;;22.14;51.50;100032.47;4976956;28;19965;-62
2022/10/15 12:02:39;;;;;;;;;;;;;;;22.07;51.32;100039.25;4970815;28;19922;-63
2022/10/15 12:05:04;;;;;;;;;;;;;;;22.23;51.61;100034.50;4974873;28;19918;-62
2022/10/15 12:07:36;;;;;;;;;;;;;;;22.35;51.12;100036.22;4976880;28;20282;-63
2022/10/15 12:10:21;;;;;;;;;;;;;;;22.38;51.25;100044.03;4973588;28;19918;-64
2022/10/15 12:12:53;;;;;;;;;;;;;;;22.42;51.09;100047.31;4969090;28;19925;-64
2022/10/15 12:15:39;;;;;;;;;;;;;;;22.37;50.69;100054.84;4975965;28;19922;-63
2022/10/15 12:18:13;;;;;;;;;;;;;;;22.42;50.58;100051.81;4976656;28;19964;-63
2022/10/15 12:20:41;;;;;;;;;;;;;;;22.44;50.87;100048.06;4975481;28;19914;-62
2022/10/15 12:23:20;;;;;;;;;;;;;;;22.55;50.10;100048.09;4973875;28;19941;-63
2022/10/15 12:25:45;;;;;;;;;;;;;;;22.63;49.77;100043.00;4975929;28;19925;-62
2022/10/15 12:28:13;;;;;;;;;;;;;;;22.65;50.27;100042.88;4974644;28;19930;-62
2022/10/15 12:30:41;;;;;;;;;;;;;;;22.62;50.25;100043.97;4978175;28;19918;-63
2022/10/15 12:33:45;;;;;;;;;;;;;;;22.62;50.38;100043.09;4974582;28;19918;-64
2022/10/15 12:36:29;;;;;;;;;;;;;;;22.57;50.30;100039.94;4951213;28;20391;-63
2022/10/15 12:39:03;;;;;;;;;;;;;;;22.58;50.19;100036.28;4952582;29;19966;-62
2022/10/15 12:41:36;;;;;;;;;;;;;;;22.53;50.20;100033.09;4963778;28;19918;-64